sensor_id;sensor_type;location;lat;lon;timestamp;P1;durP1;ratioP1;P2;durP2;ratioP2
21741;SDS011;11033;47.490;11.116;2024-03-07T00:00:01;35.08;;;26.58;;
21741;SDS011;11033;47.490;11.116;2024-03-07T00:02:39;51.95;;;32.90;;
21741;SDS011;11033;47.490;11.116;2024-03-07T00:05:05;40.03;;;29.05;;
21741;SDS011;11033;47.490;11.116;2024-03-07T00:07:30;42.15;;;29.30;;
21741;SDS011;11033;47.490;11.116;2024-03-07T00:09:55;56.80;;;33.15;;
21741;SDS011;11033;47.490;11.116;2024-03-07T00:12:21;48.97;;;30.33;;
21741;SDS011;11033;47.490;11.116;2024-03-07T00:14:47;40.95;;;29.33;;
21741;SDS011;11033;47.490;11.116;2024-03-07T00:17:13;43.63;;;31.42;;
21741;SDS011;11033;47.490;11.116;2024-03-07T00:19:39;40.53;;;30.08;;
21741;SDS011;11033;47.490;11.116;2024-03-07T00:22:04;41.63;;;30.13;;
21741;SDS011;11033;47.490;11.116;2024-03-07T00:24:30;37.58;;;27.00;;
21741;SDS011;11033;47.490;11.116;2024-03-07T00:26:56;38.45;;;27.60;;
21741;SDS011;11033;47.490;11.116;2024-03-07T00:29:22;43.65;;;30.48;;
21741;SDS011;11033;47.490;11.116;2024-03-07T00:31:47;35.75;;;25.73;;
21741;SDS011;11033;47.490;11.116;2024-03-07T00:34:13;38.80;;;26.52;;
21741;SDS011;11033;47.490;11.116;2024-03-07T00:36:41;42.38;;;29.50;;
21741;SDS011;11033;47.490;11.116;2024-03-07T00:39:07;38.88;;;28.50;;
21741;SDS011;11033;47.490;11.116;2024-03-07T00:41:33;36.85;;;25.23;;
21741;SDS011;11033;47.490;11.116;2024-03-07T00:43:59;38.47;;;28.50;;
21741;SDS011;11033;47.490;11.116;2024-03-07T00:46:24;34.92;;;26.77;;
21741;SDS011;11033;47.490;11.116;2024-03-07T00:48:49;35.53;;;27.08;;
21741;SDS011;11033;47.490;11.116;2024-03-07T00:51:15;34.08;;;25.27;;
21741;SDS011;11033;47.490;11.116;2024-03-07T00:53:40;39.83;;;29.23;;
21741;SDS011;11033;47.490;11.116;2024-03-07T00:56:06;41.67;;;31.30;;
21741;SDS011;11033;47.490;11.116;2024-03-07T00:58:31;37.63;;;27.83;;
21741;SDS011;11033;47.490;11.116;2024-03-07T01:00:57;42.15;;;30.17;;
21741;SDS011;11033;47.490;11.116;2024-03-07T01:03:22;35.22;;;24.33;;
21741;SDS011;11033;47.490;11.116;2024-03-07T01:05:49;38.50;;;28.30;;
21741;SDS011;11033;47.490;11.116;2024-03-07T01:08:14;42.88;;;30.33;;
21741;SDS011;11033;47.490;11.116;2024-03-07T01:10:40;41.15;;;29.15;;
21741;SDS011;11033;47.490;11.116;2024-03-07T01:13:05;38.30;;;28.55;;
21741;SDS011;11033;47.490;11.116;2024-03-07T01:15:34;40.70;;;28.13;;
21741;SDS011;11033;47.490;11.116;2024-03-07T01:17:59;39.80;;;28.10;;
21741;SDS011;11033;47.490;11.116;2024-03-07T01:20:24;37.92;;;27.90;;
21741;SDS011;11033;47.490;11.116;2024-03-07T01:22:50;41.72;;;30.02;;
21741;SDS011;11033;47.490;11.116;2024-03-07T01:25:16;39.33;;;27.13;;
21741;SDS011;11033;47.490;11.116;2024-03-07T01:27:42;44.30;;;29.77;;
21741;SDS011;11033;47.490;11.116;2024-03-07T01:30:07;40.85;;;29.05;;
21741;SDS011;11033;47.490;11.116;2024-03-07T01:32:33;43.95;;;29.35;;
21741;SDS011;11033;47.490;11.116;2024-03-07T01:34:58;40.83;;;28.75;;
21741;SDS011;11033;47.490;11.116;2024-03-07T01:37:24;40.08;;;28.10;;
21741;SDS011;11033;47.490;11.116;2024-03-07T01:39:49;43.35;;;29.45;;
21741;SDS011;11033;47.490;11.116;2024-03-07T01:42:14;51.47;;;33.13;;
21741;SDS011;11033;47.490;11.116;2024-03-07T01:44:40;42.55;;;28.05;;
21741;SDS011;11033;47.490;11.116;2024-03-07T01:47:06;45.03;;;27.77;;
21741;SDS011;11033;47.490;11.116;2024-03-07T01:49:32;46.78;;;30.02;;
21741;SDS011;11033;47.490;11.116;2024-03-07T01:51:58;50.65;;;30.73;;
21741;SDS011;11033;47.490;11.116;2024-03-07T01:54:23;59.78;;;33.40;;
21741;SDS011;11033;47.490;11.116;2024-03-07T01:56:49;52.58;;;30.80;;
21741;SDS011;11033;47.490;11.116;2024-03-07T01:59:15;46.08;;;29.90;;
21741;SDS011;11033;47.490;11.116;2024-03-07T02:01:41;45.40;;;27.85;;
21741;SDS011;11033;47.490;11.116;2024-03-07T02:04:08;51.25;;;29.52;;
21741;SDS011;11033;47.490;11.116;2024-03-07T02:06:33;44.20;;;27.85;;
21741;SDS011;11033;47.490;11.116;2024-03-07T02:08:59;46.40;;;29.10;;
21741;SDS011;11033;47.490;11.116;2024-03-07T02:11:25;46.75;;;28.95;;
21741;SDS011;11033;47.490;11.116;2024-03-07T02:13:50;43.53;;;28.85;;
21741;SDS011;11033;47.490;11.116;2024-03-07T02:16:16;43.05;;;26.48;;
21741;SDS011;11033;47.490;11.116;2024-03-07T02:18:41;46.28;;;29.05;;
21741;SDS011;11033;47.490;11.116;2024-03-07T02:21:07;45.47;;;29.23;;
21741;SDS011;11033;47.490;11.116;2024-03-07T02:23:34;47.53;;;29.25;;
21741;SDS011;11033;47.490;11.116;2024-03-07T02:25:59;46.92;;;28.60;;
21741;SDS011;11033;47.490;11.116;2024-03-07T02:28:25;54.05;;;31.33;;
21741;SDS011;11033;47.490;11.116;2024-03-07T02:30:50;66.95;;;32.85;;
21741;SDS011;11033;47.490;11.116;2024-03-07T02:33:15;54.50;;;30.88;;
21741;SDS011;11033;47.490;11.116;2024-03-07T02:35:40;44.42;;;27.95;;
21741;SDS011;11033;47.490;11.116;2024-03-07T02:38:06;47.08;;;27.63;;
21741;SDS011;11033;47.490;11.116;2024-03-07T02:40:31;40.50;;;26.30;;
21741;SDS011;11033;47.490;11.116;2024-03-07T02:42:57;41.28;;;26.55;;
21741;SDS011;11033;47.490;11.116;2024-03-07T02:45:23;49.28;;;29.00;;
21741;SDS011;11033;47.490;11.116;2024-03-07T02:47:49;44.75;;;28.88;;
21741;SDS011;11033;47.490;11.116;2024-03-07T02:50:14;44.00;;;28.50;;
21741;SDS011;11033;47.490;11.116;2024-03-07T02:52:39;40.10;;;26.60;;
21741;SDS011;11033;47.490;11.116;2024-03-07T02:55:05;37.75;;;25.20;;
21741;SDS011;11033;47.490;11.116;2024-03-07T02:57:31;34.88;;;22.35;;
21741;SDS011;11033;47.490;11.116;2024-03-07T02:59:56;36.38;;;24.90;;
21741;SDS011;11033;47.490;11.116;2024-03-07T03:02:22;39.65;;;25.63;;
21741;SDS011;11033;47.490;11.116;2024-03-07T03:04:47;39.72;;;25.45;;
21741;SDS011;11033;47.490;11.116;2024-03-07T03:07:13;34.08;;;23.10;;
21741;SDS011;11033;47.490;11.116;2024-03-07T03:09:38;48.47;;;26.30;;
21741;SDS011;11033;47.490;11.116;2024-03-07T03:12:11;56.97;;;28.88;;
21741;SDS011;11033;47.490;11.116;2024-03-07T03:14:37;39.97;;;25.58;;
21741;SDS011;11033;47.490;11.116;2024-03-07T03:17:02;47.08;;;26.15;;
21741;SDS011;11033;47.490;11.116;2024-03-07T03:19:28;39.20;;;25.23;;
21741;SDS011;11033;47.490;11.116;2024-03-07T03:21:53;45.45;;;27.02;;
21741;SDS011;11033;47.490;11.116;2024-03-07T03:24:20;41.22;;;26.10;;
21741;SDS011;11033;47.490;11.116;2024-03-07T03:26:46;34.85;;;23.63;;
21741;SDS011;11033;47.490;11.116;2024-03-07T03:29:11;34.60;;;21.75;;
21741;SDS011;11033;47.490;11.116;2024-03-07T03:31:38;31.42;;;21.58;;
21741;SDS011;11033;47.490;11.116;2024-03-07T03:34:04;30.15;;;20.25;;
21741;SDS011;11033;47.490;11.116;2024-03-07T03:36:29;29.73;;;20.38;;
21741;SDS011;11033;47.490;11.116;2024-03-07T03:38:54;34.15;;;21.08;;
21741;SDS011;11033;47.490;11.116;2024-03-07T03:41:20;29.77;;;19.88;;
21741;SDS011;11033;47.490;11.116;2024-03-07T03:43:45;28.48;;;19.27;;
21741;SDS011;11033;47.490;11.116;2024-03-07T03:46:12;29.98;;;20.60;;
21741;SDS011;11033;47.490;11.116;2024-03-07T03:48:41;32.00;;;21.65;;
21741;SDS011;11033;47.490;11.116;2024-03-07T03:51:07;29.70;;;20.58;;
21741;SDS011;11033;47.490;11.116;2024-03-07T03:53:33;32.40;;;22.27;;
21741;SDS011;11033;47.490;11.116;2024-03-07T03:55:58;36.45;;;23.70;;
21741;SDS011;11033;47.490;11.116;2024-03-07T03:58:24;35.15;;;23.15;;
21741;SDS011;11033;47.490;11.116;2024-03-07T04:00:49;39.70;;;22.80;;
21741;SDS011;11033;47.490;11.116;2024-03-07T04:03:14;36.42;;;22.90;;
21741;SDS011;11033;47.490;11.116;2024-03-07T04:05:39;41.88;;;25.33;;
21741;SDS011;11033;47.490;11.116;2024-03-07T04:08:06;35.35;;;22.30;;
21741;SDS011;11033;47.490;11.116;2024-03-07T04:10:32;36.92;;;24.90;;
21741;SDS011;11033;47.490;11.116;2024-03-07T04:12:58;39.38;;;26.17;;
21741;SDS011;11033;47.490;11.116;2024-03-07T04:15:23;39.17;;;26.17;;
21741;SDS011;11033;47.490;11.116;2024-03-07T04:17:51;44.35;;;25.95;;
21741;SDS011;11033;47.490;11.116;2024-03-07T04:20:17;35.60;;;24.52;;
21741;SDS011;11033;47.490;11.116;2024-03-07T04:22:43;37.42;;;24.05;;
21741;SDS011;11033;47.490;11.116;2024-03-07T04:25:08;42.67;;;24.98;;
21741;SDS011;11033;47.490;11.116;2024-03-07T04:27:34;38.25;;;26.10;;
21741;SDS011;11033;47.490;11.116;2024-03-07T04:30:02;37.60;;;24.30;;
21741;SDS011;11033;47.490;11.116;2024-03-07T04:32:29;40.85;;;25.05;;
21741;SDS011;11033;47.490;11.116;2024-03-07T04:34:54;39.08;;;26.30;;
21741;SDS011;11033;47.490;11.116;2024-03-07T04:37:22;35.72;;;23.35;;
21741;SDS011;11033;47.490;11.116;2024-03-07T04:39:47;39.53;;;25.40;;
21741;SDS011;11033;47.490;11.116;2024-03-07T04:42:13;39.00;;;25.23;;
21741;SDS011;11033;47.490;11.116;2024-03-07T04:44:38;34.72;;;21.50;;
21741;SDS011;11033;47.490;11.116;2024-03-07T04:47:04;42.58;;;23.80;;
21741;SDS011;11033;47.490;11.116;2024-03-07T04:49:31;37.75;;;24.85;;
21741;SDS011;11033;47.490;11.116;2024-03-07T04:51:57;35.25;;;24.00;;
21741;SDS011;11033;47.490;11.116;2024-03-07T04:54:24;38.88;;;24.35;;
21741;SDS011;11033;47.490;11.116;2024-03-07T04:56:51;40.40;;;24.48;;
21741;SDS011;11033;47.490;11.116;2024-03-07T04:59:18;37.38;;;23.55;;
21741;SDS011;11033;47.490;11.116;2024-03-07T05:01:44;39.28;;;22.95;;
21741;SDS011;11033;47.490;11.116;2024-03-07T05:04:14;36.55;;;23.17;;
21741;SDS011;11033;47.490;11.116;2024-03-07T05:06:40;35.42;;;23.13;;
21741;SDS011;11033;47.490;11.116;2024-03-07T05:09:06;39.58;;;23.02;;
21741;SDS011;11033;47.490;11.116;2024-03-07T05:11:33;36.15;;;23.88;;
21741;SDS011;11033;47.490;11.116;2024-03-07T05:14:00;37.80;;;22.88;;
21741;SDS011;11033;47.490;11.116;2024-03-07T05:16:29;38.33;;;22.67;;
21741;SDS011;11033;47.490;11.116;2024-03-07T05:18:56;45.72;;;24.80;;
21741;SDS011;11033;47.490;11.116;2024-03-07T05:21:24;33.47;;;22.50;;
21741;SDS011;11033;47.490;11.116;2024-03-07T05:24:05;33.20;;;21.42;;
21741;SDS011;11033;47.490;11.116;2024-03-07T05:26:33;34.50;;;21.90;;
21741;SDS011;11033;47.490;11.116;2024-03-07T05:29:02;38.78;;;24.95;;
21741;SDS011;11033;47.490;11.116;2024-03-07T05:31:32;36.58;;;23.30;;
21741;SDS011;11033;47.490;11.116;2024-03-07T05:33:59;36.30;;;22.77;;
21741;SDS011;11033;47.490;11.116;2024-03-07T05:36:28;35.15;;;21.95;;
21741;SDS011;11033;47.490;11.116;2024-03-07T05:38:54;33.45;;;22.17;;
21741;SDS011;11033;47.490;11.116;2024-03-07T05:41:19;36.30;;;21.48;;
21741;SDS011;11033;47.490;11.116;2024-03-07T05:43:44;34.95;;;21.17;;
21741;SDS011;11033;47.490;11.116;2024-03-07T05:46:09;33.53;;;21.38;;
21741;SDS011;11033;47.490;11.116;2024-03-07T05:48:36;31.48;;;20.88;;
21741;SDS011;11033;47.490;11.116;2024-03-07T05:51:02;31.88;;;20.00;;
21741;SDS011;11033;47.490;11.116;2024-03-07T05:53:27;29.92;;;20.17;;
21741;SDS011;11033;47.490;11.116;2024-03-07T05:55:53;27.35;;;18.95;;
21741;SDS011;11033;47.490;11.116;2024-03-07T05:58:18;26.60;;;17.50;;
21741;SDS011;11033;47.490;11.116;2024-03-07T06:00:46;28.23;;;18.35;;
21741;SDS011;11033;47.490;11.116;2024-03-07T06:03:15;27.17;;;18.17;;
21741;SDS011;11033;47.490;11.116;2024-03-07T06:05:42;38.45;;;23.52;;
21741;SDS011;11033;47.490;11.116;2024-03-07T06:08:08;32.40;;;19.88;;
21741;SDS011;11033;47.490;11.116;2024-03-07T06:10:33;33.53;;;20.85;;
21741;SDS011;11033;47.490;11.116;2024-03-07T06:12:59;40.03;;;26.75;;
21741;SDS011;11033;47.490;11.116;2024-03-07T06:15:24;36.35;;;23.30;;
21741;SDS011;11033;47.490;11.116;2024-03-07T06:17:50;46.05;;;30.80;;
21741;SDS011;11033;47.490;11.116;2024-03-07T06:20:15;44.13;;;27.45;;
21741;SDS011;11033;47.490;11.116;2024-03-07T06:22:50;41.72;;;27.05;;
21741;SDS011;11033;47.490;11.116;2024-03-07T06:25:17;53.00;;;32.13;;
21741;SDS011;11033;47.490;11.116;2024-03-07T06:27:45;49.33;;;30.85;;
21741;SDS011;11033;47.490;11.116;2024-03-07T06:30:17;50.25;;;30.98;;
21741;SDS011;11033;47.490;11.116;2024-03-07T06:32:43;40.35;;;25.55;;
21741;SDS011;11033;47.490;11.116;2024-03-07T06:35:09;56.38;;;33.33;;
21741;SDS011;11033;47.490;11.116;2024-03-07T06:37:35;62.67;;;30.77;;
21741;SDS011;11033;47.490;11.116;2024-03-07T06:40:00;55.28;;;32.85;;
21741;SDS011;11033;47.490;11.116;2024-03-07T06:42:30;44.47;;;26.07;;
21741;SDS011;11033;47.490;11.116;2024-03-07T06:44:57;47.97;;;30.02;;
21741;SDS011;11033;47.490;11.116;2024-03-07T06:47:23;49.85;;;30.35;;
21741;SDS011;11033;47.490;11.116;2024-03-07T06:49:48;57.70;;;33.97;;
21741;SDS011;11033;47.490;11.116;2024-03-07T06:52:13;45.95;;;29.67;;
21741;SDS011;11033;47.490;11.116;2024-03-07T06:54:39;49.58;;;30.13;;
21741;SDS011;11033;47.490;11.116;2024-03-07T06:57:04;48.97;;;29.48;;
21741;SDS011;11033;47.490;11.116;2024-03-07T06:59:29;42.13;;;24.52;;
21741;SDS011;11033;47.490;11.116;2024-03-07T07:01:54;46.15;;;27.15;;
21741;SDS011;11033;47.490;11.116;2024-03-07T07:04:22;39.55;;;24.92;;
21741;SDS011;11033;47.490;11.116;2024-03-07T07:06:50;46.70;;;26.77;;
21741;SDS011;11033;47.490;11.116;2024-03-07T07:09:15;40.50;;;25.75;;
21741;SDS011;11033;47.490;11.116;2024-03-07T07:11:43;44.70;;;28.17;;
21741;SDS011;11033;47.490;11.116;2024-03-07T07:14:10;45.10;;;27.55;;
21741;SDS011;11033;47.490;11.116;2024-03-07T07:16:36;46.15;;;28.13;;
21741;SDS011;11033;47.490;11.116;2024-03-07T07:19:05;46.20;;;28.33;;
21741;SDS011;11033;47.490;11.116;2024-03-07T07:21:32;44.13;;;28.15;;
21741;SDS011;11033;47.490;11.116;2024-03-07T07:23:57;53.58;;;32.47;;
21741;SDS011;11033;47.490;11.116;2024-03-07T07:26:22;51.85;;;27.77;;
21741;SDS011;11033;47.490;11.116;2024-03-07T07:28:48;41.63;;;27.10;;
21741;SDS011;11033;47.490;11.116;2024-03-07T07:31:13;46.42;;;29.85;;
21741;SDS011;11033;47.490;11.116;2024-03-07T07:33:38;44.08;;;27.88;;
21741;SDS011;11033;47.490;11.116;2024-03-07T07:36:03;34.67;;;22.30;;
21741;SDS011;11033;47.490;11.116;2024-03-07T07:38:29;44.17;;;28.15;;
21741;SDS011;11033;47.490;11.116;2024-03-07T07:40:55;45.63;;;28.55;;
21741;SDS011;11033;47.490;11.116;2024-03-07T07:43:20;46.08;;;27.88;;
21741;SDS011;11033;47.490;11.116;2024-03-07T07:45:46;33.58;;;20.25;;
21741;SDS011;11033;47.490;11.116;2024-03-07T07:48:11;40.22;;;25.13;;
21741;SDS011;11033;47.490;11.116;2024-03-07T07:50:36;31.13;;;20.63;;
21741;SDS011;11033;47.490;11.116;2024-03-07T07:53:02;36.80;;;22.88;;
21741;SDS011;11033;47.490;11.116;2024-03-07T07:55:32;28.90;;;18.40;;
21741;SDS011;11033;47.490;11.116;2024-03-07T07:57:58;29.40;;;19.30;;
21741;SDS011;11033;47.490;11.116;2024-03-07T08:00:25;29.40;;;18.95;;
21741;SDS011;11033;47.490;11.116;2024-03-07T08:03:00;32.67;;;19.02;;
21741;SDS011;11033;47.490;11.116;2024-03-07T08:05:27;30.73;;;20.00;;
21741;SDS011;11033;47.490;11.116;2024-03-07T08:07:55;29.67;;;19.23;;
21741;SDS011;11033;47.490;11.116;2024-03-07T08:10:25;31.30;;;18.80;;
21741;SDS011;11033;47.490;11.116;2024-03-07T08:12:53;27.40;;;17.73;;
21741;SDS011;11033;47.490;11.116;2024-03-07T08:15:19;25.00;;;17.33;;
21741;SDS011;11033;47.490;11.116;2024-03-07T08:17:45;26.63;;;15.80;;
21741;SDS011;11033;47.490;11.116;2024-03-07T08:20:12;27.65;;;17.95;;
21741;SDS011;11033;47.490;11.116;2024-03-07T08:22:39;26.80;;;18.02;;
21741;SDS011;11033;47.490;11.116;2024-03-07T08:25:05;26.13;;;16.73;;
21741;SDS011;11033;47.490;11.116;2024-03-07T08:27:35;26.63;;;18.05;;
21741;SDS011;11033;47.490;11.116;2024-03-07T08:30:02;23.40;;;15.07;;
21741;SDS011;11033;47.490;11.116;2024-03-07T08:32:31;22.70;;;15.68;;
21741;SDS011;11033;47.490;11.116;2024-03-07T08:34:56;20.55;;;14.18;;
21741;SDS011;11033;47.490;11.116;2024-03-07T08:37:21;20.83;;;14.57;;
21741;SDS011;11033;47.490;11.116;2024-03-07T08:39:47;24.48;;;16.02;;
21741;SDS011;11033;47.490;11.116;2024-03-07T08:42:13;19.65;;;14.15;;
21741;SDS011;11033;47.490;11.116;2024-03-07T08:44:38;20.98;;;14.00;;
21741;SDS011;11033;47.490;11.116;2024-03-07T08:47:03;21.02;;;14.73;;
21741;SDS011;11033;47.490;11.116;2024-03-07T08:49:29;17.08;;;11.90;;
21741;SDS011;11033;47.490;11.116;2024-03-07T08:51:54;22.27;;;14.95;;
21741;SDS011;11033;47.490;11.116;2024-03-07T08:54:19;23.08;;;16.33;;
21741;SDS011;11033;47.490;11.116;2024-03-07T08:56:45;23.20;;;16.65;;
21741;SDS011;11033;47.490;11.116;2024-03-07T08:59:10;22.25;;;15.00;;
21741;SDS011;11033;47.490;11.116;2024-03-07T09:01:40;26.70;;;18.00;;
21741;SDS011;11033;47.490;11.116;2024-03-07T09:04:08;52.10;;;30.33;;
21741;SDS011;11033;47.490;11.116;2024-03-07T09:06:34;29.13;;;19.13;;
21741;SDS011;11033;47.490;11.116;2024-03-07T09:08:59;24.23;;;16.70;;
21741;SDS011;11033;47.490;11.116;2024-03-07T09:11:24;25.48;;;17.25;;
21741;SDS011;11033;47.490;11.116;2024-03-07T09:13:50;26.05;;;17.67;;
21741;SDS011;11033;47.490;11.116;2024-03-07T09:16:15;23.38;;;16.05;;
21741;SDS011;11033;47.490;11.116;2024-03-07T09:18:41;22.27;;;15.02;;
21741;SDS011;11033;47.490;11.116;2024-03-07T09:21:07;20.02;;;14.73;;
21741;SDS011;11033;47.490;11.116;2024-03-07T09:23:32;18.27;;;12.50;;
21741;SDS011;11033;47.490;11.116;2024-03-07T09:25:57;16.27;;;10.38;;
21741;SDS011;11033;47.490;11.116;2024-03-07T09:28:24;15.25;;;9.90;;
21741;SDS011;11033;47.490;11.116;2024-03-07T09:30:49;13.77;;;10.40;;
21741;SDS011;11033;47.490;11.116;2024-03-07T09:33:14;11.73;;;8.70;;
21741;SDS011;11033;47.490;11.116;2024-03-07T09:35:41;12.27;;;9.05;;
21741;SDS011;11033;47.490;11.116;2024-03-07T09:38:06;9.40;;;6.90;;
21741;SDS011;11033;47.490;11.116;2024-03-07T09:40:32;9.48;;;7.03;;
21741;SDS011;11033;47.490;11.116;2024-03-07T09:42:59;10.35;;;7.20;;
21741;SDS011;11033;47.490;11.116;2024-03-07T09:45:28;11.70;;;8.15;;
21741;SDS011;11033;47.490;11.116;2024-03-07T09:47:54;10.02;;;8.30;;
21741;SDS011;11033;47.490;11.116;2024-03-07T09:50:20;11.48;;;9.00;;
21741;SDS011;11033;47.490;11.116;2024-03-07T09:52:47;13.05;;;8.93;;
21741;SDS011;11033;47.490;11.116;2024-03-07T09:55:17;13.50;;;9.32;;
21741;SDS011;11033;47.490;11.116;2024-03-07T09:57:44;12.82;;;9.15;;
21741;SDS011;11033;47.490;11.116;2024-03-07T10:00:11;13.80;;;9.25;;
21741;SDS011;11033;47.490;11.116;2024-03-07T10:02:46;13.10;;;9.48;;
21741;SDS011;11033;47.490;11.116;2024-03-07T10:05:12;13.48;;;9.65;;
21741;SDS011;11033;47.490;11.116;2024-03-07T10:07:41;12.45;;;9.77;;
21741;SDS011;11033;47.490;11.116;2024-03-07T10:10:07;12.45;;;8.63;;
21741;SDS011;11033;47.490;11.116;2024-03-07T10:12:37;12.52;;;9.23;;
21741;SDS011;11033;47.490;11.116;2024-03-07T10:15:05;11.90;;;8.13;;
21741;SDS011;11033;47.490;11.116;2024-03-07T10:17:30;12.38;;;8.73;;
21741;SDS011;11033;47.490;11.116;2024-03-07T10:19:57;12.45;;;9.00;;
21741;SDS011;11033;47.490;11.116;2024-03-07T10:22:25;10.43;;;8.27;;
21741;SDS011;11033;47.490;11.116;2024-03-07T10:24:55;10.63;;;7.85;;
21741;SDS011;11033;47.490;11.116;2024-03-07T10:27:21;10.93;;;8.10;;
21741;SDS011;11033;47.490;11.116;2024-03-07T10:29:53;10.33;;;8.00;;
21741;SDS011;11033;47.490;11.116;2024-03-07T10:32:20;11.68;;;9.05;;
21741;SDS011;11033;47.490;11.116;2024-03-07T10:34:46;12.13;;;9.13;;
21741;SDS011;11033;47.490;11.116;2024-03-07T10:37:15;12.00;;;9.13;;
21741;SDS011;11033;47.490;11.116;2024-03-07T10:39:43;11.38;;;8.40;;
21741;SDS011;11033;47.490;11.116;2024-03-07T10:42:09;10.02;;;8.02;;
21741;SDS011;11033;47.490;11.116;2024-03-07T10:44:41;9.25;;;7.22;;
21741;SDS011;11033;47.490;11.116;2024-03-07T10:47:09;12.17;;;9.73;;
21741;SDS011;11033;47.490;11.116;2024-03-07T10:49:42;14.48;;;10.98;;
21741;SDS011;11033;47.490;11.116;2024-03-07T10:52:34;12.38;;;9.25;;
21741;SDS011;11033;47.490;11.116;2024-03-07T10:55:08;12.40;;;9.52;;
21741;SDS011;11033;47.490;11.116;2024-03-07T10:57:56;13.57;;;9.68;;
21741;SDS011;11033;47.490;11.116;2024-03-07T11:00:27;17.77;;;11.25;;
21741;SDS011;11033;47.490;11.116;2024-03-07T11:03:00;15.80;;;9.98;;
21741;SDS011;11033;47.490;11.116;2024-03-07T11:05:27;14.10;;;10.45;;
21741;SDS011;11033;47.490;11.116;2024-03-07T11:07:57;16.48;;;11.18;;
21741;SDS011;11033;47.490;11.116;2024-03-07T11:10:24;14.38;;;10.55;;
21741;SDS011;11033;47.490;11.116;2024-03-07T11:12:50;15.55;;;10.52;;
21741;SDS011;11033;47.490;11.116;2024-03-07T11:15:16;14.82;;;10.65;;
21741;SDS011;11033;47.490;11.116;2024-03-07T11:22:49;14.82;;;9.50;;
21741;SDS011;11033;47.490;11.116;2024-03-07T11:25:19;12.55;;;9.98;;
21741;SDS011;11033;47.490;11.116;2024-03-07T11:27:58;13.98;;;9.30;;
21741;SDS011;11033;47.490;11.116;2024-03-07T11:30:25;12.45;;;8.95;;
21741;SDS011;11033;47.490;11.116;2024-03-07T11:32:51;11.10;;;8.10;;
21741;SDS011;11033;47.490;11.116;2024-03-07T11:35:31;13.38;;;8.70;;
21741;SDS011;11033;47.490;11.116;2024-03-07T11:38:00;10.68;;;8.32;;
21741;SDS011;11033;47.490;11.116;2024-03-07T11:42:54;12.18;;;9.02;;
21741;SDS011;11033;47.490;11.116;2024-03-07T11:45:40;11.30;;;9.18;;
21741;SDS011;11033;47.490;11.116;2024-03-07T11:48:10;13.57;;;9.45;;
21741;SDS011;11033;47.490;11.116;2024-03-07T11:50:36;10.50;;;8.73;;
21741;SDS011;11033;47.490;11.116;2024-03-07T11:53:02;10.40;;;9.15;;
21741;SDS011;11033;47.490;11.116;2024-03-07T11:55:35;10.57;;;8.02;;
21741;SDS011;11033;47.490;11.116;2024-03-07T11:58:13;9.65;;;7.63;;
21741;SDS011;11033;47.490;11.116;2024-03-07T12:00:45;9.70;;;7.57;;
21741;SDS011;11033;47.490;11.116;2024-03-07T12:03:11;9.10;;;8.13;;
21741;SDS011;11033;47.490;11.116;2024-03-07T12:05:39;7.72;;;6.93;;
21741;SDS011;11033;47.490;11.116;2024-03-07T12:08:05;8.73;;;7.72;;
21741;SDS011;11033;47.490;11.116;2024-03-07T12:10:31;7.95;;;7.15;;
21741;SDS011;11033;47.490;11.116;2024-03-07T12:12:57;7.65;;;6.82;;
21741;SDS011;11033;47.490;11.116;2024-03-07T12:15:22;8.30;;;7.50;;
21741;SDS011;11033;47.490;11.116;2024-03-07T12:17:48;7.80;;;7.10;;
21741;SDS011;11033;47.490;11.116;2024-03-07T12:20:15;8.10;;;7.20;;
21741;SDS011;11033;47.490;11.116;2024-03-07T12:22:54;7.57;;;6.78;;
21741;SDS011;11033;47.490;11.116;2024-03-07T12:25:21;7.70;;;6.65;;
21741;SDS011;11033;47.490;11.116;2024-03-07T12:28:00;8.07;;;7.28;;
21741;SDS011;11033;47.490;11.116;2024-03-07T12:30:36;8.77;;;6.85;;
21741;SDS011;11033;47.490;11.116;2024-03-07T12:33:12;8.27;;;7.25;;
21741;SDS011;11033;47.490;11.116;2024-03-07T12:35:47;8.40;;;7.50;;
21741;SDS011;11033;47.490;11.116;2024-03-07T12:38:17;9.57;;;6.80;;
21741;SDS011;11033;47.490;11.116;2024-03-07T12:40:43;7.07;;;6.05;;
21741;SDS011;11033;47.490;11.116;2024-03-07T12:43:20;8.88;;;7.50;;
21741;SDS011;11033;47.490;11.116;2024-03-07T12:45:52;8.35;;;7.00;;
21741;SDS011;11033;47.490;11.116;2024-03-07T12:48:18;9.38;;;7.78;;
21741;SDS011;11033;47.490;11.116;2024-03-07T12:50:46;9.80;;;7.88;;
21741;SDS011;11033;47.490;11.116;2024-03-07T12:53:18;9.82;;;7.50;;
21741;SDS011;11033;47.490;11.116;2024-03-07T12:55:47;8.57;;;7.22;;
21741;SDS011;11033;47.490;11.116;2024-03-07T12:58:12;10.40;;;8.38;;
21741;SDS011;11033;47.490;11.116;2024-03-07T13:00:38;11.80;;;8.63;;
21741;SDS011;11033;47.490;11.116;2024-03-07T13:03:06;10.48;;;8.25;;
21741;SDS011;11033;47.490;11.116;2024-03-07T13:05:31;12.63;;;9.25;;
21741;SDS011;11033;47.490;11.116;2024-03-07T13:07:56;12.65;;;8.80;;
21741;SDS011;11033;47.490;11.116;2024-03-07T13:10:22;11.50;;;8.55;;
21741;SDS011;11033;47.490;11.116;2024-03-07T13:12:48;9.63;;;8.27;;
21741;SDS011;11033;47.490;11.116;2024-03-07T13:15:15;10.48;;;7.70;;
21741;SDS011;11033;47.490;11.116;2024-03-07T13:17:40;8.85;;;7.30;;
21741;SDS011;11033;47.490;11.116;2024-03-07T13:20:08;9.82;;;7.30;;
21741;SDS011;11033;47.490;11.116;2024-03-07T13:22:44;10.27;;;7.90;;
21741;SDS011;11033;47.490;11.116;2024-03-07T13:25:22;9.38;;;7.60;;
21741;SDS011;11033;47.490;11.116;2024-03-07T13:28:02;10.18;;;7.43;;
21741;SDS011;11033;47.490;11.116;2024-03-07T13:30:28;11.48;;;8.40;;
21741;SDS011;11033;47.490;11.116;2024-03-07T13:32:54;12.30;;;8.10;;
21741;SDS011;11033;47.490;11.116;2024-03-07T13:35:24;10.60;;;8.82;;
21741;SDS011;11033;47.490;11.116;2024-03-07T13:37:51;11.25;;;8.80;;
21741;SDS011;11033;47.490;11.116;2024-03-07T13:40:20;10.55;;;8.65;;
21741;SDS011;11033;47.490;11.116;2024-03-07T13:42:52;10.45;;;8.40;;
21741;SDS011;11033;47.490;11.116;2024-03-07T13:45:20;10.18;;;8.45;;
21741;SDS011;11033;47.490;11.116;2024-03-07T13:47:46;12.57;;;8.73;;
21741;SDS011;11033;47.490;11.116;2024-03-07T13:50:18;10.82;;;8.65;;
21741;SDS011;11033;47.490;11.116;2024-03-07T13:52:44;11.13;;;9.23;;
21741;SDS011;11033;47.490;11.116;2024-03-07T13:55:33;12.27;;;9.07;;
21741;SDS011;11033;47.490;11.116;2024-03-07T13:58:05;10.98;;;9.48;;
21741;SDS011;11033;47.490;11.116;2024-03-07T14:03:15;12.80;;;11.05;;
21741;SDS011;11033;47.490;11.116;2024-03-07T14:05:56;13.98;;;11.20;;
21741;SDS011;11033;47.490;11.116;2024-03-07T14:08:33;14.55;;;12.10;;
21741;SDS011;11033;47.490;11.116;2024-03-07T14:23:10;17.38;;;14.10;;
21741;SDS011;11033;47.490;11.116;2024-03-07T14:29:02;17.58;;;13.55;;
21741;SDS011;11033;47.490;11.116;2024-03-07T14:31:39;16.15;;;13.45;;
21741;SDS011;11033;47.490;11.116;2024-03-07T14:34:10;17.83;;;13.57;;
21741;SDS011;11033;47.490;11.116;2024-03-07T14:36:47;18.30;;;14.23;;
21741;SDS011;11033;47.490;11.116;2024-03-07T14:39:20;19.95;;;14.20;;